Terminal Aerodrome Forecast
Issued by NWS

Home | Current Version | Previous Version | Text Only | Print | Product List | Glossary On
Versions: 1 2 3 4 5 6 7 8 9 10 11 12 13 14 15 16 17 18 19 20 21 22
000
FTUS43 KAPX 050537
TAFMBL
TAF
KMBL 050537Z 0506/0606 00000KT 1/2SM FG OVC002
     FM051400 VRB03KT P6SM BKN015
     FM051800 28006KT P6SM SCT035
     FM060100 00000KT 6SM BR FEW040
      AMD LTD TO CLD VIS AND WIND=

USA.gov is the U.S. government's official web portal to all federal, state and local government web resources and services.